createdAt,value
2024-01-21T00:02:50.362Z,9.77
2024-01-21T00:05:55.619Z,11.27
2024-01-21T00:08:57.998Z,12.90
2024-01-21T00:12:00.318Z,21.27
2024-01-21T00:15:02.968Z,11.67
2024-01-21T00:18:05.528Z,19.13
2024-01-21T00:21:07.806Z,13.87
2024-01-21T00:24:10.064Z,12.97
2024-01-21T00:27:12.388Z,20.33
2024-01-21T00:30:15.023Z,13.53
2024-01-21T00:33:17.736Z,16.63
2024-01-21T00:36:20.050Z,10.27
2024-01-21T00:39:22.481Z,9.83
2024-01-21T00:42:25.198Z,12.33
2024-01-21T00:45:27.931Z,12.10
2024-01-21T00:48:30.318Z,10.97
2024-01-21T00:51:32.536Z,11.43
2024-01-21T00:54:34.880Z,13.70
2024-01-21T00:57:37.076Z,10.90
2024-01-21T01:00:39.448Z,10.10
2024-01-21T01:03:41.877Z,11.07
2024-01-21T01:06:44.166Z,15.63
2024-01-21T01:09:46.455Z,23.83
2024-01-21T01:12:48.819Z,11.73
2024-01-21T01:15:51.914Z,12.77
2024-01-21T01:18:54.266Z,13.50
2024-01-21T01:21:56.602Z,11.50
2024-01-21T01:24:58.859Z,10.67
2024-01-21T01:28:01.391Z,9.93
2024-01-21T01:31:03.789Z,11.80
2024-01-21T01:34:06.085Z,10.20
2024-01-21T01:37:10.488Z,17.27
2024-01-21T01:40:12.849Z,15.57
2024-01-21T01:43:15.192Z,13.27
2024-01-21T01:46:17.729Z,20.87
2024-01-21T01:49:22.044Z,14.10
2024-01-21T01:52:24.294Z,14.13
2024-01-21T01:55:27.187Z,13.37
2024-01-21T01:58:30.031Z,13.23
2024-01-21T02:01:32.389Z,15.93
2024-01-21T02:04:35.406Z,18.03
2024-01-21T02:07:37.670Z,14.00
2024-01-21T02:10:39.856Z,15.00
2024-01-21T02:13:42.108Z,15.47
2024-01-21T02:16:44.343Z,17.17
2024-01-21T02:19:46.817Z,14.03
2024-01-21T02:22:49.403Z,13.90
2024-01-21T02:25:51.706Z,14.17
2024-01-21T02:28:54.123Z,17.67
2024-01-21T02:31:58.353Z,14.30
2024-01-21T02:35:00.704Z,16.10
2024-01-21T02:38:03.589Z,13.33
2024-01-21T02:41:05.909Z,13.07
2024-01-21T02:44:08.455Z,9.53
2024-01-21T02:47:10.885Z,10.60
2024-01-21T02:50:13.149Z,21.73
2024-01-21T02:53:15.242Z,15.43
2024-01-21T02:56:24.214Z,15.77
2024-01-21T02:59:26.340Z,10.43
2024-01-21T03:02:28.560Z,12.00
2024-01-21T03:05:30.890Z,18.40
2024-01-21T03:08:33.725Z,9.83
2024-01-21T03:11:39.802Z,12.70
2024-01-21T03:14:42.174Z,17.67
2024-01-21T03:17:44.384Z,14.70
2024-01-21T03:20:46.796Z,13.67
2024-01-21T03:23:49.300Z,25.17
2024-01-21T03:26:51.614Z,11.17
2024-01-21T03:29:53.845Z,12.80
2024-01-21T03:32:56.117Z,21.10
2024-01-21T03:35:58.342Z,14.50
2024-01-21T03:39:00.883Z,14.63
2024-01-21T03:42:03.106Z,11.33
2024-01-21T03:45:05.930Z,14.97
2024-01-21T03:48:08.644Z,18.10
2024-01-21T03:51:14.814Z,15.87
2024-01-21T03:54:18.608Z,13.27
2024-01-21T03:57:23.032Z,12.33
2024-01-21T04:00:25.470Z,16.58
2024-01-21T04:03:27.988Z,15.47
2024-01-21T04:06:30.433Z,13.40
2024-01-21T04:09:36.950Z,13.67
2024-01-21T04:12:39.265Z,10.53
2024-01-21T04:15:42.559Z,21.73
2024-01-21T04:18:45.116Z,11.13
2024-01-21T04:21:47.539Z,17.57
2024-01-21T04:24:50.027Z,11.80
2024-01-21T04:27:52.679Z,18.47
2024-01-21T04:30:55.043Z,8.90
2024-01-21T04:33:57.466Z,13.30
2024-01-21T04:36:59.794Z,10.23
2024-01-21T04:40:02.090Z,13.40
2024-01-21T04:43:04.363Z,10.37
2024-01-21T04:46:07.528Z,12.53
2024-01-21T04:49:10.049Z,9.87
2024-01-21T04:52:12.410Z,15.63
2024-01-21T04:55:14.879Z,11.67
2024-01-21T04:58:17.090Z,12.03
2024-01-21T05:01:21.104Z,11.33
2024-01-21T05:04:23.629Z,11.93
2024-01-21T05:07:26.559Z,13.87
2024-01-21T05:10:30.032Z,12.02
2024-01-21T05:13:37.142Z,9.20
2024-01-21T05:16:42.963Z,9.17
2024-01-21T05:19:45.306Z,8.73
2024-01-21T05:22:47.523Z,10.60
2024-01-21T05:25:53.401Z,9.70
2024-01-21T05:29:00.676Z,11.50
2024-01-21T05:32:03.567Z,13.53
2024-01-21T05:35:07.880Z,11.90
2024-01-21T05:38:10.100Z,13.27
2024-01-21T05:41:17.072Z,16.63
2024-01-21T05:44:19.578Z,16.80
2024-01-21T05:47:21.757Z,11.60
2024-01-21T05:50:23.916Z,10.73
2024-01-21T05:53:26.172Z,9.90
2024-01-21T05:56:28.310Z,14.00
2024-01-21T05:59:30.448Z,9.30
2024-01-21T06:02:33.526Z,13.63
2024-01-21T06:05:35.800Z,8.73
2024-01-21T06:08:38.043Z,13.83
2024-01-21T06:11:41.772Z,14.33
2024-01-21T06:14:45.713Z,13.10
2024-01-21T06:17:50.944Z,11.90
2024-01-21T06:20:53.134Z,14.40
2024-01-21T06:23:55.393Z,10.30
2024-01-21T06:26:57.738Z,17.27
2024-01-21T06:30:12.266Z,14.03
2024-01-21T06:33:14.658Z,14.65
2024-01-21T06:36:17.005Z,14.50
2024-01-21T06:39:19.265Z,20.23
2024-01-21T06:42:25.146Z,17.70
2024-01-21T06:45:28.179Z,22.17
2024-01-21T06:48:30.636Z,22.73
2024-01-21T06:51:33.706Z,18.33
2024-01-21T06:54:36.041Z,17.63
2024-01-21T06:57:41.187Z,18.57
2024-01-21T07:00:43.901Z,24.47
2024-01-21T07:03:46.973Z,21.13
2024-01-21T07:06:49.316Z,20.83
2024-01-21T07:09:51.627Z,16.90
2024-01-21T07:12:57.047Z,25.30
2024-01-21T07:15:59.210Z,21.60
2024-01-21T07:19:01.598Z,20.07
2024-01-21T07:22:04.575Z,18.07
2024-01-21T07:25:07.139Z,16.33
2024-01-21T07:28:09.478Z,14.67
2024-01-21T07:31:11.893Z,23.60
2024-01-21T07:34:14.896Z,15.03
2024-01-21T07:37:17.330Z,14.40
2024-01-21T07:40:19.546Z,15.90
2024-01-21T07:43:21.794Z,12.00
2024-01-21T07:46:24.063Z,13.07
2024-01-21T07:49:27.021Z,11.10
2024-01-21T07:52:29.217Z,13.27
2024-01-21T07:55:31.509Z,13.40
2024-01-21T07:58:33.730Z,14.80
2024-01-21T08:01:35.917Z,11.97
2024-01-21T08:04:38.511Z,10.77
2024-01-21T08:07:41.678Z,11.93
2024-01-21T08:10:43.974Z,15.20
2024-01-21T08:13:46.356Z,12.33
2024-01-21T08:16:48.523Z,15.37
2024-01-21T08:19:51.038Z,14.60
2024-01-21T08:22:53.558Z,10.83
2024-01-21T08:25:55.829Z,14.90
2024-01-21T08:28:59.399Z,13.97
2024-01-21T08:32:04.183Z,9.10
2024-01-21T08:35:08.283Z,8.43
2024-01-21T08:38:10.617Z,6.77
2024-01-21T08:41:12.979Z,7.50
2024-01-21T08:44:15.170Z,7.80
2024-01-21T08:47:17.367Z,7.77
2024-01-21T08:50:19.578Z,14.60
2024-01-21T08:53:22.285Z,9.40
2024-01-21T08:56:26.787Z,7.50
2024-01-21T09:02:31.006Z,9.45
2024-01-21T09:05:33.169Z,9.25
2024-01-21T09:08:35.511Z,10.88
2024-01-21T09:11:37.587Z,7.75
2024-01-21T09:14:40.039Z,7.65
2024-01-21T09:17:42.694Z,7.22
2024-01-21T09:20:45.030Z,9.32
2024-01-21T09:23:47.178Z,9.20
2024-01-21T09:26:49.464Z,10.43
2024-01-21T09:29:51.722Z,10.48
2024-01-21T09:32:54.073Z,5.85
2024-01-21T09:35:56.435Z,4.70
2024-01-21T09:38:58.685Z,6.28
2024-01-21T09:42:01.261Z,5.00
2024-01-21T09:45:04.598Z,10.38
2024-01-21T09:48:08.093Z,8.47
2024-01-21T09:51:10.856Z,6.95
2024-01-21T09:54:13.030Z,11.10
2024-01-21T09:57:15.551Z,6.93
2024-01-21T10:00:19.080Z,6.15
2024-01-21T10:03:21.559Z,5.28
2024-01-21T10:06:24.161Z,6.95
2024-01-21T10:09:26.720Z,6.55
2024-01-21T10:12:29.025Z,7.38
2024-01-21T10:15:31.874Z,5.57
2024-01-21T10:18:34.381Z,5.55
2024-01-21T10:21:37.251Z,8.25
2024-01-21T10:24:43.898Z,8.43
2024-01-21T10:27:47.505Z,8.55
2024-01-21T10:30:49.952Z,5.15
2024-01-21T10:33:52.281Z,6.07
2024-01-21T10:37:01.144Z,6.38
2024-01-21T10:40:03.975Z,6.65
2024-01-21T10:43:06.933Z,6.18
2024-01-21T10:46:09.862Z,6.28
2024-01-21T10:49:14.569Z,5.88
2024-01-21T10:52:18.354Z,5.75
2024-01-21T10:55:21.226Z,5.03
2024-01-21T10:58:24.293Z,4.70
2024-01-21T11:01:27.223Z,4.23
2024-01-21T11:04:29.612Z,7.93
2024-01-21T11:07:32.054Z,5.63
2024-01-21T11:10:38.461Z,7.30
2024-01-21T11:13:53.981Z,9.68
2024-01-21T11:16:59.369Z,5.88
2024-01-21T11:20:04.944Z,7.72
2024-01-21T11:23:16.267Z,6.93
2024-01-21T11:26:22.530Z,5.75
2024-01-21T11:29:32.559Z,5.93
2024-01-21T11:32:34.742Z,3.95
2024-01-21T11:35:39.849Z,5.13
2024-01-21T11:38:44.778Z,5.57
2024-01-21T11:41:47.356Z,4.00
2024-01-21T11:44:49.588Z,6.40
2024-01-21T11:47:52.553Z,5.38
2024-01-21T11:50:54.873Z,5.90
2024-01-21T11:53:57.077Z,4.03
2024-01-21T11:57:00.281Z,4.47
2024-01-21T12:00:02.640Z,4.20
2024-01-21T12:03:05.001Z,4.60
2024-01-21T12:06:08.099Z,6.07
2024-01-21T12:09:10.718Z,9.40
2024-01-21T12:12:14.799Z,10.60
2024-01-21T12:15:17.929Z,9.52
2024-01-21T12:18:20.493Z,4.63
2024-01-21T12:21:25.548Z,6.30
2024-01-21T12:24:28.286Z,4.20
2024-01-21T12:27:30.639Z,4.90
2024-01-21T12:30:33.811Z,5.20
2024-01-21T12:33:36.118Z,5.45
2024-01-21T12:36:43.603Z,3.70
2024-01-21T12:39:48.336Z,4.80
2024-01-21T12:42:50.833Z,4.28
2024-01-21T12:45:53.317Z,6.05
2024-01-21T12:48:55.627Z,7.60
2024-01-21T12:51:57.838Z,7.20
2024-01-21T12:55:00.366Z,11.23
2024-01-21T12:58:03.500Z,6.40
2024-01-21T13:01:06.364Z,8.90
2024-01-21T13:04:12.115Z,6.13
2024-01-21T13:07:17.387Z,5.57
2024-01-21T13:10:19.957Z,4.70
2024-01-21T13:13:22.697Z,6.03
2024-01-21T13:16:25.020Z,9.27
2024-01-21T13:19:27.455Z,4.80
2024-01-21T13:22:30.218Z,8.20
2024-01-21T13:25:33.809Z,5.97
2024-01-21T13:29:05.264Z,6.90
2024-01-21T13:32:08.114Z,7.40
2024-01-21T13:35:10.735Z,7.97
2024-01-21T13:38:18.115Z,5.17
2024-01-21T13:41:20.464Z,5.23
2024-01-21T13:44:22.847Z,4.97
2024-01-21T13:47:25.610Z,6.27
2024-01-21T13:50:28.220Z,11.07
2024-01-21T13:53:30.517Z,10.10
2024-01-21T13:56:32.722Z,9.57
2024-01-21T13:59:35.134Z,7.47
2024-01-21T14:02:37.501Z,5.80
2024-01-21T14:05:40.315Z,5.87
2024-01-21T14:08:42.865Z,6.37
2024-01-21T14:11:46.908Z,5.47
2024-01-21T14:14:49.486Z,4.93
2024-01-21T14:17:55.485Z,4.07
2024-01-21T14:20:57.862Z,4.80
2024-01-21T14:24:00.045Z,5.87
2024-01-21T14:27:02.622Z,6.03
2024-01-21T14:30:07.230Z,6.60
2024-01-21T14:33:09.562Z,5.65
2024-01-21T14:36:11.702Z,5.73
2024-01-21T14:39:14.035Z,7.53
2024-01-21T14:42:16.164Z,4.57
2024-01-21T14:45:18.676Z,4.63
2024-01-21T14:48:21.071Z,5.23
2024-01-21T14:51:23.378Z,3.80
2024-01-21T14:54:26.036Z,7.10
2024-01-21T14:57:28.802Z,4.33
2024-01-21T15:00:31.135Z,3.53
2024-01-21T15:03:33.367Z,3.97
2024-01-21T15:06:35.842Z,3.57
2024-01-21T15:09:38.605Z,4.97
2024-01-21T15:12:41.666Z,3.63
2024-01-21T15:15:44.000Z,2.97
2024-01-21T15:18:46.338Z,4.70
2024-01-21T15:21:49.028Z,7.20
2024-01-21T15:24:51.272Z,8.27
2024-01-21T15:27:53.717Z,5.00
2024-01-21T15:30:56.037Z,4.03
2024-01-21T15:33:58.368Z,6.63
2024-01-21T15:37:00.697Z,5.87
2024-01-21T15:40:03.763Z,6.00
2024-01-21T15:43:06.237Z,2.50
2024-01-21T15:46:09.158Z,6.07
2024-01-21T15:49:11.748Z,4.33
2024-01-21T15:52:14.107Z,5.10
2024-01-21T15:55:16.389Z,4.07
2024-01-21T15:58:18.941Z,6.60
2024-01-21T16:01:23.567Z,4.77
2024-01-21T16:07:27.952Z,4.30
2024-01-21T16:10:30.122Z,6.77
2024-01-21T16:13:36.838Z,5.83
2024-01-21T16:16:40.264Z,4.37
2024-01-21T16:19:42.521Z,3.90
2024-01-21T16:22:46.673Z,3.83
2024-01-21T16:25:49.941Z,4.83
2024-01-21T16:28:52.188Z,6.23
2024-01-21T16:31:55.442Z,6.83
2024-01-21T16:35:01.131Z,4.10
2024-01-21T16:38:04.940Z,5.97
2024-01-21T16:41:08.099Z,6.10
2024-01-21T16:44:10.659Z,7.43
2024-01-21T16:47:12.926Z,4.47
2024-01-21T16:50:15.596Z,4.57
2024-01-21T16:53:37.979Z,5.37
2024-01-21T16:56:42.687Z,4.13
2024-01-21T16:59:51.606Z,5.38
2024-01-21T17:02:57.522Z,5.47
2024-01-21T17:05:59.729Z,3.77
2024-01-21T17:09:02.672Z,5.13
2024-01-21T17:12:06.338Z,4.97
2024-01-21T17:15:08.950Z,5.77
2024-01-21T17:18:25.269Z,6.60
2024-01-21T17:21:27.581Z,6.10
2024-01-21T17:24:29.788Z,3.77
2024-01-21T17:27:33.823Z,8.30
2024-01-21T17:30:36.014Z,6.18
2024-01-21T17:33:38.419Z,8.07
2024-01-21T17:36:41.717Z,8.10
2024-01-21T17:39:43.913Z,3.90
2024-01-21T17:42:46.175Z,6.97
2024-01-21T17:45:48.380Z,5.70
2024-01-21T17:48:51.820Z,6.13
2024-01-21T17:51:54.142Z,5.00
2024-01-21T17:54:59.785Z,7.17
2024-01-21T17:58:02.111Z,4.43
2024-01-21T18:01:04.514Z,8.43
2024-01-21T18:04:10.999Z,4.80
2024-01-21T18:07:14.734Z,4.05
2024-01-21T18:10:17.012Z,5.50
2024-01-21T18:13:19.188Z,6.60
2024-01-21T18:16:23.527Z,9.27
2024-01-21T18:19:25.896Z,7.53
2024-01-21T18:22:30.740Z,22.07
2024-01-21T18:28:35.456Z,16.77
2024-01-21T18:31:37.613Z,10.67
2024-01-21T18:34:42.035Z,4.60
2024-01-21T18:37:46.912Z,13.80
2024-01-21T18:43:51.695Z,15.47
2024-01-21T18:46:54.018Z,11.13
2024-01-21T18:49:56.348Z,12.23
2024-01-21T18:52:58.660Z,19.83
2024-01-21T18:56:04.483Z,17.20
2024-01-21T18:59:07.875Z,13.00
2024-01-21T19:02:10.900Z,13.67
2024-01-21T19:05:14.358Z,15.73
2024-01-21T19:08:16.703Z,18.43
2024-01-21T19:11:21.614Z,21.73
2024-01-21T19:17:25.982Z,17.40
2024-01-21T19:20:33.451Z,23.03
2024-01-21T19:23:36.108Z,20.47
2024-01-21T19:26:38.620Z,21.83
2024-01-21T19:29:41.056Z,20.80
2024-01-21T19:32:43.460Z,24.27
2024-01-21T19:35:45.812Z,20.90
2024-01-21T19:38:48.737Z,27.20
2024-01-21T19:41:51.069Z,26.60
2024-01-21T19:44:53.241Z,27.60
2024-01-21T19:47:55.639Z,24.40
2024-01-21T19:50:58.041Z,19.47
2024-01-21T19:54:00.392Z,26.30
2024-01-21T19:57:06.350Z,19.07
2024-01-21T20:00:10.442Z,19.97
2024-01-21T20:03:12.763Z,26.80
2024-01-21T20:06:15.183Z,25.87
2024-01-21T20:09:17.577Z,21.43
2024-01-21T20:12:19.839Z,22.43
2024-01-21T20:15:22.035Z,22.17
2024-01-21T20:18:24.788Z,19.63
2024-01-21T20:21:27.084Z,24.33
2024-01-21T20:24:29.268Z,28.47
2024-01-21T20:27:32.562Z,30.13
2024-01-21T20:30:35.325Z,22.00
2024-01-21T20:33:37.994Z,25.63
2024-01-21T20:36:40.285Z,25.37
2024-01-21T20:39:42.548Z,25.90
2024-01-21T20:42:44.893Z,31.37
2024-01-21T20:45:47.044Z,27.23
2024-01-21T20:48:49.754Z,19.90
2024-01-21T20:51:52.034Z,18.73
2024-01-21T20:54:54.513Z,19.50
2024-01-21T20:57:57.526Z,21.67
2024-01-21T21:01:06.223Z,26.37
2024-01-21T21:04:17.897Z,22.27
2024-01-21T21:07:20.162Z,27.60
2024-01-21T21:10:27.123Z,24.13
2024-01-21T21:13:29.364Z,27.07
2024-01-21T21:16:31.545Z,26.50
2024-01-21T21:19:33.904Z,21.80
2024-01-21T21:22:37.600Z,21.47
2024-01-21T21:25:40.935Z,21.40
2024-01-21T21:28:43.211Z,24.43
2024-01-21T21:31:45.883Z,25.37
2024-01-21T21:34:49.042Z,23.00
2024-01-21T21:37:54.728Z,26.10
2024-01-21T21:40:56.939Z,19.60
2024-01-21T21:43:59.363Z,17.83
2024-01-21T21:47:01.772Z,21.17
2024-01-21T21:50:04.506Z,22.23
2024-01-21T21:53:07.353Z,21.93
2024-01-21T21:56:11.396Z,30.55
2024-01-21T21:59:13.986Z,27.90
2024-01-21T22:02:17.499Z,27.27
2024-01-21T22:05:20.587Z,30.27
2024-01-21T22:08:22.877Z,28.87
2024-01-21T22:11:25.445Z,29.20
2024-01-21T22:14:27.744Z,32.70
2024-01-21T22:17:30.325Z,28.63
2024-01-21T22:20:32.690Z,30.27
2024-01-21T22:23:34.943Z,24.00
2024-01-21T22:26:37.501Z,28.80
2024-01-21T22:29:39.959Z,26.60
2024-01-21T22:32:42.277Z,29.43
2024-01-21T22:35:44.554Z,27.53
2024-01-21T22:38:47.994Z,30.73
2024-01-21T22:41:50.321Z,26.53
2024-01-21T22:44:52.677Z,35.03
2024-01-21T22:47:54.983Z,23.43
2024-01-21T22:50:57.480Z,31.40
2024-01-21T22:53:59.769Z,27.90
2024-01-21T22:57:02.018Z,23.37
2024-01-21T23:00:06.500Z,30.30
2024-01-21T23:03:09.238Z,24.80
2024-01-21T23:06:12.041Z,21.30
2024-01-21T23:09:14.433Z,21.30
2024-01-21T23:12:16.653Z,31.40
2024-01-21T23:15:18.970Z,26.93
2024-01-21T23:18:22.076Z,22.20
2024-01-21T23:21:24.687Z,19.97
2024-01-21T23:24:26.844Z,27.00
2024-01-21T23:27:29.250Z,25.23
2024-01-21T23:30:31.414Z,28.50
2024-01-21T23:33:33.945Z,30.83
2024-01-21T23:36:36.243Z,26.77
2024-01-21T23:39:38.591Z,39.07
2024-01-21T23:42:40.769Z,25.53
2024-01-21T23:45:42.975Z,17.53
2024-01-21T23:48:45.264Z,27.57
2024-01-21T23:51:48.911Z,27.40
2024-01-21T23:54:51.048Z,27.37
2024-01-21T23:57:58.061Z,23.33
